Time;durP1;ratioP1;P1;durP2;ratioP2;P2;SDS_P1;SDS_P2;PMS_P1;PMS_P2;Temp;Humidity;BMP_temperature;BMP_pressure;BME280_temperature;BME280_humidity;BME280_pressure;Samples;Min_cycle;Max_cycle;Signal;HPM_P1;HPM_P2
2022/08/06 00:02:35;;;;;;;2.03;1.38;;;19.80;1.00;;;;;;7371013;19;20011;-67
2022/08/06 00:05:07;;;;;;;1.83;1.37;;;19.70;1.00;;;;;;7371315;19;20078;-65
2022/08/06 00:07:37;;;;;;;2.63;1.50;;;19.70;1.00;;;;;;7383449;19;20031;-65
2022/08/06 00:10:20;;;;;;;5.60;1.30;;;19.70;1.00;;;;;;7369676;19;20014;-66
2022/08/06 00:13:00;;;;;;;2.25;1.70;;;19.80;1.00;;;;;;7370101;19;20011;-66
2022/08/06 00:15:35;;;;;;;1.70;1.30;;;19.70;1.00;;;;;;7371585;19;20014;-66
2022/08/06 00:18:27;;;;;;;3.22;1.27;;;19.70;1.00;;;;;;7362636;19;20006;-66
2022/08/06 00:21:00;;;;;;;1.83;1.33;;;19.70;1.00;;;;;;7369395;19;20019;-67
2022/08/06 00:23:51;;;;;;;2.75;1.25;;;19.80;1.00;;;;;;7371647;19;20010;-66
2022/08/06 00:26:28;;;;;;;1.77;1.25;;;19.80;1.00;;;;;;7368519;19;20014;-67
2022/08/06 00:28:59;;;;;;;2.63;1.50;;;19.80;1.00;;;;;;7383581;19;20018;-66
2022/08/06 00:31:28;;;;;;;2.95;1.25;;;19.80;1.00;;;;;;7369776;19;20407;-66
2022/08/06 00:34:04;;;;;;;2.72;1.45;;;19.80;1.00;;;;;;7369567;19;20395;-66
2022/08/06 00:36:37;;;;;;;2.03;1.60;;;19.70;1.00;;;;;;7366799;19;20019;-65
2022/08/06 00:39:09;;;;;;;2.47;1.33;;;19.70;1.00;;;;;;7361789;19;20040;-66
2022/08/06 00:41:42;;;;;;;2.45;1.40;;;19.60;1.00;;;;;;7367356;19;20033;-65
2022/08/06 00:44:15;;;;;;;2.05;1.50;;;19.60;1.00;;;;;;7370239;19;20114;-63
2022/08/06 00:47:00;;;;;;;2.28;1.38;;;19.60;1.00;;;;;;7386077;19;20014;-66
2022/08/06 00:49:36;;;;;;;2.78;1.30;;;19.60;1.00;;;;;;7365105;19;20014;-67
2022/08/06 00:52:19;;;;;;;1.55;1.10;;;19.50;1.00;;;;;;7369777;19;20086;-66
2022/08/06 00:54:49;;;;;;;2.30;1.15;;;19.50;1.00;;;;;;7368766;19;20010;-66
2022/08/06 00:57:19;;;;;;;3.08;1.40;;;19.60;1.00;;;;;;7362278;19;20006;-66
2022/08/06 00:59:52;;;;;;;1.65;1.33;;;19.50;1.00;;;;;;7366677;19;20003;-65
2022/08/06 01:02:21;;;;;;;1.45;1.30;;;19.50;1.00;;;;;;7367699;19;20018;-65
2022/08/06 01:04:57;;;;;;;2.40;1.20;;;19.50;1.00;;;;;;7391250;19;20046;-66
2022/08/06 01:07:47;;;;;;;4.05;1.48;;;19.60;1.00;;;;;;7360063;19;20264;-66
2022/08/06 01:10:21;;;;;;;3.38;1.40;;;19.60;1.00;;;;;;7366967;19;20402;-66
2022/08/06 01:13:11;;;;;;;3.78;1.50;;;19.50;1.00;;;;;;7368512;19;20470;-67
2022/08/06 01:16:01;;;;;;;3.17;1.25;;;19.50;1.00;;;;;;7368827;19;20006;-65
2022/08/06 01:18:46;;;;;;;3.90;1.38;;;19.40;1.00;;;;;;7360361;19;20029;-65
2022/08/06 01:21:46;;;;;;;2.55;1.30;;;19.40;1.00;;;;;;7367050;19;20018;-66
2022/08/06 01:24:52;;;;;;;2.45;1.48;;;19.30;1.00;;;;;;7369280;19;20059;-66
2022/08/06 01:27:49;;;;;;;1.85;1.10;;;19.30;1.00;;;;;;7360549;19;20047;-65
2022/08/06 01:30:23;;;;;;;1.55;1.10;;;19.30;1.00;;;;;;7365696;19;20073;-65
2022/08/06 01:33:01;;;;;;;2.78;1.27;;;19.30;1.00;;;;;;7367375;19;20014;-66
2022/08/06 01:35:43;;;;;;;1.63;1.20;;;19.30;1.00;;;;;;7368953;19;20113;-66
2022/08/06 01:38:31;;;;;;;1.70;1.40;;;19.30;1.00;;;;;;7360033;19;20011;-64
2022/08/06 01:41:07;;;;;;;2.05;1.10;;;19.20;1.00;;;;;;7384213;19;20018;-66
2022/08/06 01:43:46;;;;;;;2.70;1.40;;;19.20;1.00;;;;;;7389848;19;20018;-65
2022/08/06 01:46:41;;;;;;;1.40;1.30;;;19.20;1.00;;;;;;7367256;19;20014;-66
2022/08/06 01:49:18;;;;;;;3.42;1.50;;;19.10;1.00;;;;;;7361684;19;20031;-67
2022/08/06 01:52:10;;;;;;;1.30;1.20;;;19.10;1.00;;;;;;7366626;19;20006;-65
2022/08/06 01:54:49;;;;;;;3.08;1.42;;;19.00;1.00;;;;;;7365046;19;20077;-65
2022/08/06 01:57:23;;;;;;;2.58;1.25;;;19.00;1.00;;;;;;7360626;19;20044;-66
2022/08/06 02:00:24;;;;;;;2.38;1.33;;;18.90;1.00;;;;;;7365668;19;20010;-67
2022/08/06 02:03:03;;;;;;;3.97;1.50;;;18.90;1.00;;;;;;7365423;19;20018;-66
2022/08/06 02:05:38;;;;;;;3.83;1.33;;;18.80;1.00;;;;;;7367136;19;20394;-65
2022/08/06 02:08:17;;;;;;;3.97;1.83;;;18.80;1.00;;;;;;7358666;19;20014;-65
2022/08/06 02:11:10;;;;;;;2.00;1.42;;;18.90;1.00;;;;;;7366042;19;20018;-66
2022/08/06 02:14:02;;;;;;;2.60;1.20;;;18.90;1.00;;;;;;7389234;19;20014;-64
2022/08/06 02:16:40;;;;;;;1.75;1.50;;;18.80;1.00;;;;;;7366415;19;20026;-66
2022/08/06 02:19:21;;;;;;;3.45;1.40;;;18.70;1.00;;;;;;7360990;19;20074;-65
2022/08/06 02:22:11;;;;;;;3.20;1.52;;;18.60;1.00;;;;;;7364351;19;20021;-65
2022/08/06 02:24:56;;;;;;;3.05;1.67;;;18.60;1.00;;;;;;7366454;19;20014;-67
2022/08/06 02:27:33;;;;;;;2.58;1.30;;;18.60;1.00;;;;;;7356791;19;20013;-65
2022/08/06 02:30:14;;;;;;;1.90;1.70;;;18.60;1.00;;;;;;7364198;19;20013;-65
2022/08/06 02:32:49;;;;;;;3.78;1.70;;;18.50;1.00;;;;;;7366607;19;20070;-65
2022/08/06 02:35:19;;;;;;;5.80;1.75;;;18.40;1.00;;;;;;7366642;19;20013;-65
2022/08/06 02:37:59;;;;;;;3.22;1.80;;;18.40;1.00;;;;;;7378704;19;20038;-66
2022/08/06 02:40:43;;;;;;;2.63;1.45;;;18.40;1.00;;;;;;7363766;19;20022;-65
2022/08/06 02:43:16;;;;;;;5.25;1.48;;;18.30;1.00;;;;;;7362029;19;20017;-65
2022/08/06 02:45:57;;;;;;;3.13;1.70;;;18.30;1.00;;;;;;7364669;19;20516;-66
2022/08/06 02:48:37;;;;;;;2.83;1.45;;;18.30;1.00;;;;;;7356486;19;20689;-65
2022/08/06 02:51:27;;;;;;;4.07;1.88;;;18.30;1.00;;;;;;7362837;19;20003;-66
2022/08/06 02:54:22;;;;;;;1.65;1.40;;;18.30;1.00;;;;;;7365592;19;20011;-65
2022/08/06 02:56:59;;;;;;;8.88;1.73;;;18.30;1.00;;;;;;7360856;19;20027;-65
2022/08/06 02:59:37;;;;;;;1.83;1.48;;;18.30;1.00;;;;;;7360862;19;20019;-66
2022/08/06 03:02:17;;;;;;;3.08;1.52;;;18.20;1.00;;;;;;7368741;19;20018;-68
2022/08/06 03:04:55;;;;;;;3.25;1.50;;;18.20;1.00;;;;;;7395244;19;20015;-65
2022/08/06 03:07:29;;;;;;;2.15;1.52;;;18.30;1.00;;;;;;7363676;19;20017;-65
2022/08/06 03:10:02;;;;;;;5.60;1.60;;;18.30;1.00;;;;;;7371188;19;20077;-65
2022/08/06 03:12:42;;;;;;;3.65;1.50;;;18.30;1.00;;;;;;7371664;19;20010;-65
2022/08/06 03:15:13;;;;;;;4.45;1.73;;;18.30;1.00;;;;;;7372896;19;20030;-65
2022/08/06 03:18:05;;;;;;;4.20;1.70;;;18.30;1.00;;;;;;7364655;19;20007;-67
2022/08/06 03:20:39;;;;;;;2.67;1.60;;;18.30;1.00;;;;;;7371354;19;20018;-65
2022/08/06 03:23:11;;;;;;;5.53;1.55;;;18.20;1.00;;;;;;7370084;19;20007;-65
2022/08/06 03:25:43;;;;;;;3.22;1.60;;;18.30;1.00;;;;;;7392794;19;20474;-65
2022/08/06 03:28:18;;;;;;;1.88;1.60;;;18.30;1.00;;;;;;7363211;19;20010;-66
2022/08/06 03:30:51;;;;;;;2.75;1.70;;;18.20;1.00;;;;;;7371941;19;20031;-65
2022/08/06 03:33:25;;;;;;;4.28;1.88;;;18.20;1.00;;;;;;7372135;19;20010;-65
2022/08/06 03:36:18;;;;;;;4.28;1.65;;;18.10;1.00;;;;;;7371194;19;20015;-66
2022/08/06 03:38:53;;;;;;;3.53;1.63;;;18.10;1.00;;;;;;7363238;19;20007;-64
2022/08/06 03:41:26;;;;;;;3.35;1.70;;;18.00;1.00;;;;;;7371553;19;20102;-66
2022/08/06 03:44:03;;;;;;;3.15;1.50;;;18.00;1.00;;;;;;7391468;19;20010;-65
2022/08/06 03:46:39;;;;;;;5.40;1.70;;;18.10;1.00;;;;;;7369541;19;20010;-65
2022/08/06 03:49:16;;;;;;;4.18;1.60;;;18.00;1.00;;;;;;7364992;19;20211;-65
2022/08/06 03:52:01;;;;;;;3.75;1.65;;;18.00;1.00;;;;;;7370654;19;20024;-65
2022/08/06 03:54:36;;;;;;;4.90;1.60;;;18.10;1.00;;;;;;7371625;19;20006;-66
2022/08/06 03:57:14;;;;;;;2.92;1.70;;;18.10;1.00;;;;;;7366426;19;20693;-65
2022/08/06 03:59:49;;;;;;;3.42;1.52;;;18.00;1.00;;;;;;7369562;19;20525;-66
2022/08/06 04:02:36;;;;;;;2.58;1.55;;;17.90;1.00;;;;;;7369950;19;20051;-65
2022/08/06 04:05:18;;;;;;;3.63;1.80;;;18.00;1.00;;;;;;7371374;19;20003;-65
2022/08/06 04:07:56;;;;;;;2.28;1.55;;;17.90;1.00;;;;;;7385493;19;20033;-64
2022/08/06 04:10:28;;;;;;;3.28;1.92;;;17.80;1.00;;;;;;7368415;19;20011;-66
2022/08/06 04:13:06;;;;;;;2.28;1.45;;;17.80;1.00;;;;;;7367444;19;20006;-65
2022/08/06 04:15:57;;;;;;;4.75;1.95;;;17.70;1.00;;;;;;7369313;19;20421;-65
2022/08/06 04:18:35;;;;;;;3.75;2.05;;;17.70;1.00;;;;;;7363998;19;20013;-65
2022/08/06 04:21:23;;;;;;;2.42;1.63;;;17.80;1.00;;;;;;7367714;19;20017;-64
2022/08/06 04:24:16;;;;;;;5.40;1.70;;;17.80;1.00;;;;;;7369719;19;20016;-65
2022/08/06 04:26:48;;;;;;;2.22;1.35;;;17.70;1.00;;;;;;7367707;19;20488;-66
2022/08/06 04:29:22;;;;;;;3.45;1.90;;;17.70;1.00;;;;;;7366559;19;20078;-65
2022/08/06 04:31:54;;;;;;;2.25;1.60;;;17.80;1.00;;;;;;7391565;19;20086;-65
2022/08/06 04:34:45;;;;;;;3.60;2.00;;;17.80;1.00;;;;;;7370349;19;20017;-66
2022/08/06 04:37:36;;;;;;;3.17;1.80;;;17.80;1.00;;;;;;7359860;19;20018;-65
2022/08/06 04:40:13;;;;;;;4.45;2.22;;;17.90;1.00;;;;;;7368787;19;20473;-66
2022/08/06 04:43:04;;;;;;;2.08;1.75;;;17.80;1.00;;;;;;7368831;19;20021;-65
2022/08/06 04:45:35;;;;;;;2.33;1.63;;;17.80;1.00;;;;;;7369439;19;20074;-65
2022/08/06 04:48:26;;;;;;;5.07;1.92;;;17.70;1.00;;;;;;7361456;19;20011;-65
2022/08/06 04:51:09;;;;;;;4.53;1.83;;;17.70;1.00;;;;;;7368701;19;20010;-65
2022/08/06 04:53:59;;;;;;;2.53;1.77;;;17.80;1.00;;;;;;7369944;19;20021;-65
2022/08/06 04:56:32;;;;;;;3.38;1.80;;;17.80;1.00;;;;;;7368766;19;20014;-65
2022/08/06 04:59:11;;;;;;;5.15;2.28;;;17.80;1.00;;;;;;7362402;19;20043;-65
2022/08/06 05:01:43;;;;;;;3.35;1.90;;;17.70;1.00;;;;;;7390136;19;20053;-65
2022/08/06 05:04:31;;;;;;;3.65;2.00;;;17.80;1.00;;;;;;7368140;19;20490;-66
2022/08/06 05:07:09;;;;;;;4.47;1.80;;;17.70;1.00;;;;;;7362484;19;20023;-65
2022/08/06 05:09:43;;;;;;;2.47;1.98;;;17.80;1.00;;;;;;7366406;19;20069;-65
2022/08/06 05:12:30;;;;;;;3.20;1.50;;;17.80;1.00;;;;;;7368392;19;20034;-65
2022/08/06 05:15:04;;;;;;;3.38;1.70;;;17.80;1.00;;;;;;7369542;19;20340;-65
2022/08/06 05:17:42;;;;;;;2.67;1.88;;;17.70;1.00;;;;;;7358125;19;20010;-65
2022/08/06 05:20:21;;;;;;;3.17;1.95;;;17.60;1.00;;;;;;7368685;19;20011;-65
2022/08/06 05:23:03;;;;;;;3.53;2.30;;;17.60;1.00;;;;;;7389304;19;20018;-64
2022/08/06 05:25:48;;;;;;;5.00;2.10;;;17.70;1.00;;;;;;7368145;19;20007;-65
2022/08/06 05:28:26;;;;;;;2.65;1.80;;;17.90;1.00;;;;;;7359889;19;20006;-64
2022/08/06 05:30:57;;;;;;;2.17;1.80;;;19.60;1.00;;;;;;7365603;19;20493;-65
2022/08/06 05:33:30;;;;;;;4.55;2.00;;;19.60;1.00;;;;;;7367498;19;20478;-66
2022/08/06 05:36:02;;;;;;;3.42;1.75;;;18.50;1.00;;;;;;7367262;19;20006;-65
2022/08/06 05:38:35;;;;;;;2.10;1.85;;;18.40;1.00;;;;;;7358721;19;20101;-64
2022/08/06 05:41:08;;;;;;;3.22;1.92;;;19.20;1.00;;;;;;7375584;19;20450;-65
2022/08/06 05:43:42;;;;;;;4.53;2.03;;;19.60;1.00;;;;;;7387971;19;20014;-65
2022/08/06 05:46:35;;;;;;;3.95;2.10;;;19.60;1.00;;;;;;7365128;19;20014;-65
2022/08/06 05:49:10;;;;;;;4.55;2.10;;;19.70;1.00;;;;;;7359963;19;20010;-65
2022/08/06 05:52:07;;;;;;;3.63;2.03;;;19.90;1.00;;;;;;7366395;19;20014;-65
2022/08/06 05:54:41;;;;;;;3.60;1.85;;;20.30;1.00;;;;;;7367117;19;20102;-65
2022/08/06 05:57:15;;;;;;;3.78;2.00;;;19.50;1.00;;;;;;7363239;19;20014;-65
2022/08/06 05:59:55;;;;;;;5.30;2.05;;;19.10;1.00;;;;;;7364412;19;20014;-65
2022/08/06 06:02:29;;;;;;;3.28;1.85;;;18.90;1.00;;;;;;7367036;19;20014;-65
2022/08/06 06:05:05;;;;;;;2.80;2.10;;;19.00;1.00;;;;;;7387823;19;20021;-66
2022/08/06 06:07:55;;;;;;;2.75;2.00;;;19.00;1.00;;;;;;7358907;19;20014;-65
2022/08/06 06:10:45;;;;;;;3.05;1.95;;;18.90;1.00;;;;;;7366660;19;20508;-64
2022/08/06 06:13:24;;;;;;;1.98;1.88;;;18.90;1.00;;;;;;7365181;19;20010;-65
2022/08/06 06:16:29;;;;;;;3.85;2.20;;;18.80;1.00;;;;;;7365807;19;20013;-65
2022/08/06 06:19:14;;;;;;;4.57;2.10;;;19.00;1.00;;;;;;7357399;19;20011;-65
2022/08/06 06:21:56;;;;;;;5.47;1.70;;;19.10;1.00;;;;;;7365838;19;20017;-65
2022/08/06 06:24:34;;;;;;;3.33;2.17;;;19.10;1.00;;;;;;7365909;19;20017;-65
2022/08/06 06:27:11;;;;;;;5.43;2.00;;;18.90;1.00;;;;;;7362422;19;21289;-64
2022/08/06 06:30:05;;;;;;;3.60;1.90;;;19.40;1.00;;;;;;7365283;19;20297;-65
2022/08/06 06:32:52;;;;;;;7.35;2.13;;;19.50;1.00;;;;;;7365432;19;20014;-65
2022/08/06 06:35:37;;;;;;;4.00;2.55;;;19.90;1.00;;;;;;7364088;19;20025;-65
2022/08/06 06:38:20;;;;;;;4.68;1.77;;;19.80;1.00;;;;;;7358353;19;20014;-65
2022/08/06 06:41:01;;;;;;;4.85;2.25;;;19.70;1.00;;;;;;7387215;19;20044;-65
2022/08/06 06:43:54;;;;;;;2.10;1.77;;;19.50;1.00;;;;;;7365672;19;20011;-65
2022/08/06 06:46:30;;;;;;;3.83;1.73;;;19.50;1.00;;;;;;7364027;19;20018;-65
2022/08/06 06:49:19;;;;;;;4.05;2.17;;;19.40;1.00;;;;;;7358331;19;20394;-64
2022/08/06 06:52:14;;;;;;;5.35;1.90;;;19.60;1.00;;;;;;7363863;19;20015;-66
2022/08/06 06:55:04;;;;;;;2.45;1.92;;;19.60;1.00;;;;;;7365297;19;20007;-64
2022/08/06 06:57:53;;;;;;;4.32;1.80;;;19.50;1.00;;;;;;7357388;19;20066;-64
2022/08/06 07:00:23;;;;;;;3.08;1.90;;;19.60;1.00;;;;;;7364122;19;20410;-64
2022/08/06 07:03:15;;;;;;;4.68;1.88;;;19.60;1.00;;;;;;7365159;19;20011;-65
2022/08/06 07:05:51;;;;;;;4.97;2.08;;;19.80;1.00;;;;;;7363846;19;20086;-65
2022/08/06 07:08:37;;;;;;;3.17;1.70;;;19.50;1.00;;;;;;7357738;19;20036;-64
2022/08/06 07:11:12;;;;;;;2.10;1.75;;;19.80;1.00;;;;;;7363738;19;20031;-65
2022/08/06 07:13:52;;;;;;;1.90;1.75;;;19.50;1.00;;;;;;7386880;19;20707;-66
2022/08/06 07:16:29;;;;;;;2.83;2.00;;;19.80;1.00;;;;;;7363732;19;20470;-65
2022/08/06 07:19:08;;;;;;;6.93;2.00;;;19.90;1.00;;;;;;7357030;19;20094;-64
2022/08/06 07:21:44;;;;;;;;;;;20.10;1.00;;;;;;7363391;19;20018;-65
2022/08/06 07:24:23;;;;;;;3.28;2.03;;;19.80;1.00;;;;;;7364592;19;19982;-64
2022/08/06 07:27:10;;;;;;;2.80;1.60;;;19.90;1.00;;;;;;7358291;19;20007;-64
2022/08/06 07:30:01;;;;;;;2.97;1.70;;;20.10;1.00;;;;;;7362056;19;20010;-65
2022/08/06 07:32:36;;;;;;;2.28;1.70;;;19.80;1.00;;;;;;7362054;19;20014;-65
2022/08/06 07:35:08;;;;;;;3.22;1.90;;;20.20;1.00;;;;;;7366135;19;20090;-65
2022/08/06 07:37:52;;;;;;;2.10;1.50;;;20.40;1.00;;;;;;7376667;19;20015;-66
2022/08/06 07:40:27;;;;;;;3.17;1.95;;;20.30;1.00;;;;;;7361961;19;20011;-63
2022/08/06 07:43:04;;;;;;;3.47;2.00;;;20.20;1.00;;;;;;7361748;19;20048;-65
2022/08/06 07:45:52;;;;;;;4.43;2.05;;;20.00;1.00;;;;;;7362115;19;20011;-65
2022/08/06 07:48:29;;;;;;;3.05;1.63;;;20.20;1.00;;;;;;7364858;19;20067;-64
2022/08/06 07:51:03;;;;;;;2.65;1.80;;;20.30;1.00;;;;;;7371168;19;20031;-65
2022/08/06 07:53:41;;;;;;;1.75;1.60;;;20.30;1.00;;;;;;7371138;19;20094;-64
2022/08/06 07:56:28;;;;;;;5.93;2.10;;;20.70;1.00;;;;;;7370447;19;20029;-65
2022/08/06 07:59:00;;;;;;;3.90;1.90;;;20.40;1.00;;;;;;7383759;19;20003;-65
2022/08/06 08:01:32;;;;;;;2.33;2.13;;;20.20;1.00;;;;;;7369212;19;20010;-65
2022/08/06 08:07:10;;;;;;;4.85;1.92;;;20.20;1.00;;;;;;7362563;19;20010;-65
2022/08/06 08:09:46;;;;;;;2.65;2.10;;;20.20;1.00;;;;;;7368714;19;20008;-65
2022/08/06 08:12:34;;;;;;;4.65;1.92;;;20.00;1.00;;;;;;7368918;19;20413;-65
2022/08/06 08:15:07;;;;;;;;;;;20.10;1.00;;;;;;7370834;19;20035;-65
2022/08/06 08:17:51;;;;;;;3.97;1.80;;;20.50;1.00;;;;;;7364546;19;20599;-67
2022/08/06 08:20:29;;;;;;;3.65;2.03;;;20.90;1.00;;;;;;7367829;19;20018;-66
2022/08/06 08:23:05;;;;;;;3.10;1.80;;;20.90;1.00;;;;;;7390236;19;20018;-68
2022/08/06 08:25:40;;;;;;;3.00;1.70;;;20.90;1.00;;;;;;7367010;19;20074;-67
2022/08/06 08:28:14;;;;;;;3.33;1.75;;;20.90;1.00;;;;;;7361705;19;20654;-68
2022/08/06 08:30:47;;;;;;;2.22;1.55;;;21.40;1.00;;;;;;7366101;19;20518;-67
2022/08/06 08:33:19;;;;;;;6.57;2.20;;;21.10;1.00;;;;;;7368512;19;20443;-65
2022/08/06 08:35:50;;;;;;;2.15;1.92;;;21.40;1.00;;;;;;7366315;19;20018;-67
2022/08/06 08:38:30;;;;;;;6.18;1.80;;;21.20;1.00;;;;;;7361532;19;20015;-66
2022/08/06 08:41:08;;;;;;;2.80;2.00;;;21.00;1.00;;;;;;7389366;19;20074;-68
2022/08/06 08:43:45;;;;;;;2.63;1.60;;;21.20;1.00;;;;;;7368398;19;20009;-66
2022/08/06 08:46:42;;;;;;;4.45;1.90;;;21.30;1.00;;;;;;7365147;19;20015;-69
2022/08/06 08:49:33;;;;;;;3.08;1.60;;;21.20;1.00;;;;;;7363814;19;20042;-66
2022/08/06 08:52:09;;;;;;;3.65;1.65;;;21.30;1.00;;;;;;7367713;19;20018;-65
2022/08/06 08:54:44;;;;;;;2.35;1.30;;;21.30;1.00;;;;;;7368999;19;20010;-68
2022/08/06 08:57:18;;;;;;;4.82;1.80;;;21.40;1.00;;;;;;7361295;19;20014;-67
2022/08/06 09:00:10;;;;;;;3.70;1.53;;;21.30;1.00;;;;;;7364244;19;20034;-66
2022/08/06 09:02:44;;;;;;;3.00;1.30;;;21.20;1.00;;;;;;7367157;19;20097;-66
2022/08/06 09:05:19;;;;;;;3.47;1.30;;;21.30;1.00;;;;;;7367435;19;20014;-65
2022/08/06 09:07:50;;;;;;;5.18;1.60;;;21.70;1.00;;;;;;7380781;19;20026;-67
2022/08/06 09:10:31;;;;;;;2.05;1.25;;;21.70;1.00;;;;;;7366220;19;20486;-67
2022/08/06 09:13:07;;;;;;;3.67;1.38;;;21.70;1.00;;;;;;7366886;19;20047;-66
2022/08/06 09:15:51;;;;;;;1.90;1.10;;;21.80;1.00;;;;;;7366896;19;20006;-66
2022/08/06 09:18:24;;;;;;;3.47;1.33;;;22.10;1.00;;;;;;7360922;19;20023;-68
2022/08/06 09:21:01;;;;;;;2.13;1.35;;;21.90;1.00;;;;;;7365084;19;20010;-67
2022/08/06 09:23:34;;;;;;;1.95;1.30;;;21.60;1.00;;;;;;7366568;19;20083;-66
2022/08/06 09:26:25;;;;;;;1.42;1.33;;;21.70;1.00;;;;;;7363927;19;20041;-67
2022/08/06 09:29:23;;;;;;;3.03;1.38;;;21.50;1.00;;;;;;7360504;19;20011;-66
2022/08/06 09:32:03;;;;;;;2.78;1.23;;;21.40;1.00;;;;;;7388207;19;20081;-66
2022/08/06 09:34:40;;;;;;;2.70;1.20;;;21.90;1.00;;;;;;7366511;19;20021;-69
2022/08/06 09:37:29;;;;;;;2.22;1.52;;;21.90;1.00;;;;;;7358243;19;20027;-66
2022/08/06 09:40:21;;;;;;;3.58;1.05;;;22.50;1.00;;;;;;7362928;19;20058;-67
2022/08/06 09:42:52;;;;;;;2.95;1.30;;;22.40;1.00;;;;;;7365267;19;20391;-67
2022/08/06 09:45:26;;;;;;;3.70;1.30;;;22.00;1.00;;;;;;7366545;19;20011;-66
2022/08/06 09:48:12;;;;;;;1.90;1.00;;;21.60;1.00;;;;;;7360453;19;20049;-66
2022/08/06 09:50:51;;;;;;;3.58;1.40;;;21.80;1.00;;;;;;7364696;19;20007;-66
2022/08/06 09:53:22;;;;;;;2.85;1.45;;;22.30;1.00;;;;;;7365247;19;20046;-67
2022/08/06 09:55:54;;;;;;;1.63;1.10;;;22.30;1.00;;;;;;7388351;19;20019;-67
2022/08/06 09:58:35;;;;;;;3.65;1.50;;;22.70;1.00;;;;;;7357520;19;20145;-67
2022/08/06 10:01:21;;;;;;;1.98;1.05;;;22.70;1.00;;;;;;7364940;19;20400;-66
2022/08/06 10:03:53;;;;;;;3.35;1.40;;;22.90;1.00;;;;;;7365439;19;20026;-66
2022/08/06 10:06:37;;;;;;;2.03;1.27;;;22.80;1.00;;;;;;7363120;19;20412;-67
2022/08/06 10:09:10;;;;;;;3.03;1.23;;;22.70;1.00;;;;;;7358550;19;20042;-66
2022/08/06 10:12:00;;;;;;;2.47;1.50;;;23.30;1.00;;;;;;7365333;19;20018;-65
2022/08/06 10:14:32;;;;;;;1.60;0.98;;;22.60;1.00;;;;;;7365808;19;20119;-66
2022/08/06 10:17:10;;;;;;;5.95;1.77;;;22.60;1.00;;;;;;7380835;19;20474;-66
2022/08/06 10:19:44;;;;;;;3.42;1.02;;;23.20;1.00;;;;;;7362417;19;20466;-66
2022/08/06 10:22:22;;;;;;;3.17;1.40;;;23.40;1.00;;;;;;7365197;19;20007;-66
2022/08/06 10:24:58;;;;;;;2.38;1.42;;;23.00;1.00;;;;;;7364081;19;20011;-66
2022/08/06 10:27:32;;;;;;;2.38;1.23;;;23.30;1.00;;;;;;7358063;19;20082;-67
2022/08/06 10:30:09;;;;;;;3.10;1.17;;;23.50;1.00;;;;;;7364193;19;20078;-66
2022/08/06 10:32:48;;;;;;;1.90;1.30;;;23.90;1.00;;;;;;7366096;19;20014;-67
2022/08/06 10:35:22;;;;;;;3.10;1.25;;;23.90;1.00;;;;;;7366988;19;20022;-66
2022/08/06 10:38:03;;;;;;;2.90;1.10;;;23.60;1.00;;;;;;7380641;19;20371;-66
2022/08/06 10:40:45;;;;;;;2.50;1.20;;;22.60;1.00;;;;;;7362969;19;20103;-66
2022/08/06 10:43:29;;;;;;;2.53;1.42;;;22.90;1.00;;;;;;7365263;19;20010;-66
2022/08/06 10:46:06;;;;;;;2.35;1.45;;;22.80;1.00;;;;;;7363706;19;20018;-66
2022/08/06 10:48:43;;;;;;;6.63;1.50;;;23.50;1.00;;;;;;7357917;19;20017;-66
2022/08/06 10:51:35;;;;;;;2.35;1.20;;;23.70;1.00;;;;;;7364263;19;20049;-66
2022/08/06 10:54:26;;;;;;;2.38;1.30;;;23.60;1.00;;;;;;7364003;19;20019;-66
2022/08/06 10:56:58;;;;;;;1.80;1.60;;;24.10;1.00;;;;;;7362605;19;20025;-66
2022/08/06 10:59:32;;;;;;;2.92;1.38;;;24.00;1.00;;;;;;7363284;19;20019;-66
2022/08/06 11:02:21;;;;;;;2.17;1.25;;;23.30;1.00;;;;;;7364549;19;20014;-67
2022/08/06 11:04:59;;;;;;;1.95;1.10;;;23.20;1.00;;;;;;7386359;19;20011;-66
2022/08/06 11:08:13;;;;;;;3.25;1.70;;;22.80;1.00;;;;;;7358817;19;20030;-66
2022/08/06 11:11:48;;;;;;;2.88;1.38;;;22.80;1.00;;;;;;7257237;19;2004212;-67
2022/08/06 11:14:37;;;;;;;2.28;1.20;;;22.80;1.00;;;;;;7363744;19;20013;-65
2022/08/06 11:17:09;;;;;;;2.40;1.40;;;23.40;1.00;;;;;;7357964;19;20039;-66
2022/08/06 11:19:45;;;;;;;1.63;1.27;;;23.60;1.00;;;;;;7380469;19;20014;-66
2022/08/06 11:22:43;;;;;;;2.22;1.50;;;23.30;1.00;;;;;;7366999;19;20457;-66
2022/08/06 11:25:40;;;;;;;4.70;1.50;;;22.90;1.00;;;;;;7370503;19;20022;-66
2022/08/06 11:28:14;;;;;;;2.42;1.70;;;23.00;1.00;;;;;;7367415;19;20018;-65
2022/08/06 11:30:45;;;;;;;3.55;1.50;;;22.70;1.00;;;;;;7367361;19;20011;-65
2022/08/06 11:33:20;;;;;;;2.33;1.60;;;22.70;1.00;;;;;;7370605;19;20013;-65
2022/08/06 11:35:51;;;;;;;2.80;1.60;;;22.50;1.00;;;;;;7372567;19;20019;-65
2022/08/06 11:38:53;;;;;;;1.50;1.40;;;22.70;1.00;;;;;;7367145;19;20018;-65
2022/08/06 11:41:33;;;;;;;5.38;1.90;;;22.30;1.00;;;;;;7370051;19;20011;-66
2022/08/06 11:44:23;;;;;;;2.37;1.40;;;23.10;1.00;;;;;;7371354;19;20014;-66
2022/08/06 11:47:11;;;;;;;3.38;1.52;;;23.90;1.00;;;;;;7387345;19;20287;-66
2022/08/06 11:49:44;;;;;;;4.85;1.67;;;24.00;1.00;;;;;;7365606;19;20025;-65
2022/08/06 11:52:43;;;;;;;3.07;1.50;;;24.50;1.00;;;;;;7366593;19;20015;-66
2022/08/06 11:55:15;;;;;;;2.05;1.20;;;24.10;1.00;;;;;;7369154;19;20017;-66
2022/08/06 11:58:20;;;;;;;5.38;1.70;;;24.40;1.00;;;;;;7367291;19;20017;-67
2022/08/06 12:01:00;;;;;;;2.70;1.23;;;25.10;1.00;;;;;;7364119;19;20043;-67
2022/08/06 12:03:50;;;;;;;2.35;1.20;;;24.00;1.00;;;;;;7369898;19;20018;-66
2022/08/06 12:06:25;;;;;;;1.83;1.27;;;23.70;1.00;;;;;;7369162;19;20071;-65
2022/08/06 12:09:18;;;;;;;2.33;1.40;;;23.40;1.00;;;;;;7365376;19;20021;-67
2022/08/06 12:12:30;;;;;;;2.25;1.40;;;23.20;1.00;;;;;;7370508;19;20488;-66
2022/08/06 12:15:05;;;;;;;1.27;1.17;;;23.70;1.00;;;;;;7370424;19;20040;-66
2022/08/06 12:18:03;;;;;;;2.13;1.55;;;24.00;1.00;;;;;;7365933;19;20426;-66
2022/08/06 12:20:50;;;;;;;2.78;1.25;;;23.80;1.00;;;;;;7365567;19;20007;-66
2022/08/06 12:23:25;;;;;;;3.30;1.30;;;24.70;1.00;;;;;;7369162;19;20029;-65
2022/08/06 12:26:15;;;;;;;3.70;1.30;;;24.90;1.00;;;;;;7368741;19;20006;-65
2022/08/06 12:29:05;;;;;;;2.80;1.23;;;24.60;1.00;;;;;;7386153;19;20026;-65
2022/08/06 12:31:40;;;;;;;1.83;1.10;;;24.10;1.00;;;;;;7369214;19;20017;-65
2022/08/06 12:34:29;;;;;;;4.75;1.30;;;24.40;1.00;;;;;;7365308;19;20482;-66
2022/08/06 12:37:00;;;;;;;1.80;1.05;;;24.50;1.00;;;;;;7364161;19;20038;-66
2022/08/06 12:42:28;;;;;;;1.13;0.98;;;24.90;1.00;;;;;;7368076;19;20066;-65
2022/08/06 12:45:22;;;;;;;3.70;1.30;;;24.40;1.00;;;;;;7370490;19;20063;-67
2022/08/06 12:48:15;;;;;;;3.05;1.02;;;24.50;1.00;;;;;;7363150;19;20083;-67
2022/08/06 12:50:46;;;;;;;1.42;1.10;;;24.90;1.00;;;;;;7364798;19;20066;-67
2022/08/06 12:53:17;;;;;;;2.40;1.35;;;24.60;1.00;;;;;;7368733;19;20014;-67
2022/08/06 12:55:52;;;;;;;1.52;1.10;;;25.30;1.00;;;;;;7389909;19;20052;-66
2022/08/06 12:58:29;;;;;;;6.90;1.17;;;24.90;1.00;;;;;;7366570;19;20010;-67
2022/08/06 13:01:14;;;;;;;2.65;1.35;;;25.30;1.00;;;;;;7364723;19;20006;-67
2022/08/06 13:04:10;;;;;;;3.42;1.25;;;25.50;1.00;;;;;;7366613;19;20011;-66
2022/08/06 13:06:46;;;;;;;1.48;0.98;;;25.70;1.00;;;;;;7359524;19;20014;-65
2022/08/06 13:09:19;;;;;;;1.20;1.05;;;24.60;1.00;;;;;;7359857;19;20043;-66
2022/08/06 13:11:50;;;;;;;1.50;0.98;;;24.40;1.00;;;;;;7368610;19;20018;-67
2022/08/06 13:14:23;;;;;;;2.40;1.23;;;24.80;1.00;;;;;;7363960;19;20010;-66
2022/08/06 13:16:53;;;;;;;2.17;0.82;;;25.10;1.00;;;;;;7385446;19;20077;-66
2022/08/06 13:19:28;;;;;;;2.40;1.00;;;24.60;1.00;;;;;;7362362;19;20011;-67
2022/08/06 13:22:11;;;;;;;3.00;0.80;;;24.30;1.00;;;;;;7367235;19;20441;-66
2022/08/06 13:24:48;;;;;;;2.28;1.00;;;24.30;1.00;;;;;;7367455;19;20010;-66
2022/08/06 13:27:36;;;;;;;3.53;0.95;;;24.60;1.00;;;;;;7364483;19;20066;-66
2022/08/06 13:30:09;;;;;;;2.03;1.00;;;24.90;1.00;;;;;;7364399;19;20010;-66
2022/08/06 13:33:13;;;;;;;1.77;1.17;;;25.00;1.00;;;;;;7366272;19;20486;-67
2022/08/06 13:35:47;;;;;;;1.00;0.80;;;25.40;1.00;;;;;;7368799;19;20618;-66
2022/08/06 13:38:28;;;;;;;2.83;0.82;;;25.20;1.00;;;;;;7364410;19;20090;-69
2022/08/06 13:40:59;;;;;;;1.73;1.30;;;24.90;1.00;;;;;;7385379;19;20018;-66
2022/08/06 13:43:38;;;;;;;1.50;0.90;;;24.80;1.00;;;;;;7364338;19;20478;-67
2022/08/06 13:46:16;;;;;;;1.00;0.85;;;24.60;1.00;;;;;;7364455;19;20014;-67
2022/08/06 13:48:58;;;;;;;1.10;1.00;;;25.10;1.00;;;;;;7362019;19;20406;-68
2022/08/06 13:51:33;;;;;;;2.00;0.98;;;25.20;1.00;;;;;;7365887;19;20018;-67
2022/08/06 13:54:06;;;;;;;1.40;0.90;;;25.00;1.00;;;;;;7366682;19;20009;-67
2022/08/06 13:56:49;;;;;;;3.17;1.10;;;24.60;1.00;;;;;;7362873;19;20062;-66
2022/08/06 13:59:22;;;;;;;0.80;0.70;;;25.20;1.00;;;;;;7361179;19;20373;-67
2022/08/06 14:02:08;;;;;;;1.20;0.80;;;25.00;1.00;;;;;;7366586;19;20011;-66
2022/08/06 14:04:41;;;;;;;1.90;1.10;;;25.40;1.00;;;;;;7387536;19;20026;-66
2022/08/06 14:07:22;;;;;;;1.50;0.90;;;25.00;1.00;;;;;;7361886;19;20402;-66
2022/08/06 14:10:01;;;;;;;4.05;1.05;;;25.30;1.00;;;;;;7360046;19;20664;-65
2022/08/06 14:12:38;;;;;;;1.77;1.00;;;25.30;1.00;;;;;;7366989;19;20022;-66
2022/08/06 14:15:11;;;;;;;4.20;0.98;;;25.20;1.00;;;;;;7366356;19;20037;-67